Terminal Aerodrome Forecast
Issued by NWS

Home | Current Version | Previous Version | Text Only | Print | Product List | Glossary On
Versions: 1 2 3 4 5 6 7 8 9 10 11 12 13 14 15 16 17 18 19 20 21 22 23 24 25
000
FTUS42 KMHX 052358 CCA
TAFPGV
TAF COR
KPGV 052358Z 0600/0624 34003KT P6SM VCSH BKN025
      TEMPO 0600/0602 BKN008
     FM060500 VRB03KT P6SM VCSH BKN008
     FM061300 30006KT 6SM -SHRA OVC010
     FM061800 32007KT P6SM VCSH BKN030
      AMD LTD TO CLD VIS AND WIND=

USA.gov is the U.S. government's official web portal to all federal, state and local government web resources and services.